Main page
METAR-TAF:

METAR-TAF

Airports :

Cap. FAP Pedro Canga Rodríguez Airport

Tumbes, Peru

latitude: 03-33S, longitude: 080-24W, elevation: 25 m

Current weather observation

The report was made 54 minutes ago, at 22:00 UTC
Wind 6 kt from the Northwest
Temperature 23°C
Humidity 83%
Pressure 1009 hPa
Visibility 10 km or more
Few clouds at a height of 1300 ft
Broken clouds at a height of 2000 ft

METAR: SPME 052200Z 32006KT 9999 FEW013 BKN020 23/20 Q1009 RMK BIRD HAZARD RWY 32/14 PP000

Time: 17:54 (22:54 UTC)

Forecast

The report was made 3 hours and 54 minutes ago, at 19:00 UTC
Forecast valid from 05 at 19 UTC to 06 at 18 UTC
Wind 9 kt from the North/Northwest
Visibility 10 km or more
Broken clouds at a height of 1300 ft

TAF: SPME 051900Z 0519/0618 33009KT 9999 BKN013 TX25/0519Z TN19/0611Z

Weather observations and forecasts of more than 4000 airports (METAR and TAF reports).

The available stations are represented by yellow and red dots on the map.

Hover mouse over dot to see the name of the station.

Then click to see weather observations and forecasts.

To change the map : click on the green buttons with a black cross to zoom in, on the green button with a dash to zoom out, or on the green arrows for adjacent maps.


METAR-TAF: